Time;durP1;ratioP1;P1;durP2;ratioP2;P2;SDS_P1;SDS_P2;PMS_P1;PMS_P2;Temp;Humidity;BMP_temperature;BMP_pressure;BME280_temperature;BME280_humidity;BME280_pressure;Samples;Min_cycle;Max_cycle;Signal;HPM_P1;HPM_P2
2023/09/28 00:01:03;;;;;;;16.77;10.00;;;17.90;99.90;;;;;;5064493;28;20432;-77
2023/09/28 00:03:50;;;;;;;12.85;9.77;;;17.80;99.90;;;;;;5068033;27;20066;-77
2023/09/28 00:06:36;;;;;;;15.65;9.90;;;17.80;99.90;;;;;;5063227;28;20109;-77
2023/09/28 00:09:22;;;;;;;14.75;9.38;;;17.70;99.90;;;;;;5066743;28;20028;-77
2023/09/28 00:12:08;;;;;;;17.60;10.55;;;17.70;99.90;;;;;;5092684;27;20035;-77
2023/09/28 00:14:54;;;;;;;14.02;10.43;;;17.60;99.90;;;;;;5079043;28;20036;-77
2023/09/28 00:17:40;;;;;;;14.55;10.15;;;17.60;99.90;;;;;;5084620;27;20039;-78
2023/09/28 00:20:27;;;;;;;15.45;9.75;;;17.50;99.90;;;;;;5074830;28;20039;-77
2023/09/28 00:23:24;;;;;;;12.30;8.90;;;17.50;99.90;;;;;;5086662;28;20074;-78
2023/09/28 00:26:12;;;;;;;14.20;9.60;;;17.40;99.90;;;;;;5080731;27;20070;-78
2023/09/28 00:28:58;;;;;;;16.80;9.50;;;17.40;99.90;;;;;;5100949;28;20039;-77
2023/09/28 00:31:45;;;;;;;15.02;9.32;;;17.40;99.90;;;;;;5081312;27;20522;-77
2023/09/28 00:34:31;;;;;;;13.20;9.43;;;17.40;99.90;;;;;;5085739;28;20040;-76
2023/09/28 00:37:17;;;;;;;16.90;9.93;;;17.40;99.90;;;;;;5094686;27;20460;-77
2023/09/28 00:40:20;;;;;;;16.33;9.90;;;17.30;99.90;;;;;;5084497;27;20049;-77
2023/09/28 00:43:06;;;;;;;14.10;10.35;;;17.30;99.90;;;;;;5077831;28;20646;-77
2023/09/28 00:45:53;;;;;;;17.50;10.20;;;17.20;99.90;;;;;;5084693;27;20035;-77
2023/09/28 00:48:44;;;;;;;12.15;10.85;;;17.20;99.90;;;;;;5077918;28;20043;-77
2023/09/28 00:51:31;;;;;;;16.30;10.13;;;17.20;99.90;;;;;;5081143;27;20023;-77
2023/09/28 00:54:17;;;;;;;13.25;10.20;;;17.10;99.90;;;;;;5094050;28;20035;-77
2023/09/28 00:57:05;;;;;;;19.25;11.38;;;17.10;99.90;;;;;;5075671;27;20476;-77
2023/09/28 00:59:51;;;;;;;16.30;11.90;;;17.10;99.90;;;;;;5070709;28;20112;-77
2023/09/28 01:02:37;;;;;;;14.23;11.38;;;17.10;99.90;;;;;;5055323;28;20075;-77
2023/09/28 01:05:33;;;;;;;19.05;12.48;;;17.10;99.90;;;;;;5075039;27;20531;-77
2023/09/28 01:08:22;;;;;;;17.38;12.27;;;17.20;99.90;;;;;;5068662;28;20032;-77
2023/09/28 01:11:08;;;;;;;21.05;12.68;;;17.20;99.90;;;;;;5083262;27;20050;-77
2023/09/28 01:13:54;;;;;;;20.88;12.48;;;17.20;99.90;;;;;;5098102;28;20371;-77
2023/09/28 01:16:40;;;;;;;24.67;12.85;;;17.20;99.90;;;;;;5073923;27;20360;-76
2023/09/28 01:19:27;;;;;;;18.35;12.30;;;17.10;99.90;;;;;;5091391;27;20035;-76
2023/09/28 01:22:16;;;;;;;14.80;11.93;;;17.10;99.90;;;;;;5061816;28;20438;-76
2023/09/28 01:25:03;;;;;;;20.83;12.07;;;17.10;99.90;;;;;;5082646;27;20127;-76
2023/09/28 01:27:50;;;;;;;21.92;12.45;;;17.10;99.90;;;;;;5097144;28;20118;-77
2023/09/28 01:30:37;;;;;;;16.85;11.63;;;17.20;99.90;;;;;;5098767;27;20036;-76
2023/09/28 01:33:23;;;;;;;17.55;11.43;;;17.30;99.90;;;;;;5084530;28;20039;-76
2023/09/28 01:36:09;;;;;;;21.15;11.73;;;17.30;99.90;;;;;;5066713;28;20839;-76
2023/09/28 01:38:58;;;;;;;16.02;11.18;;;17.30;99.90;;;;;;5083338;28;20047;-76
2023/09/28 01:41:43;;;;;;;17.40;11.82;;;17.30;99.90;;;;;;5083152;28;20045;-76
2023/09/28 01:44:29;;;;;;;18.83;11.93;;;17.40;99.90;;;;;;5086114;27;20368;-76
2023/09/28 01:47:15;;;;;;;21.13;11.98;;;17.30;99.90;;;;;;5101816;27;20043;-76
2023/09/28 01:50:03;;;;;;;18.20;12.02;;;17.40;99.90;;;;;;5093511;27;20039;-76
2023/09/28 01:52:49;;;;;;;15.85;11.80;;;17.40;99.90;;;;;;5077400;27;20035;-76
2023/09/28 01:55:35;;;;;;;19.33;11.95;;;17.40;99.90;;;;;;5069995;28;20114;-76
2023/09/28 01:58:21;;;;;;;19.05;12.10;;;17.40;99.90;;;;;;5082121;27;20043;-77
2023/09/28 02:01:07;;;;;;;18.95;12.55;;;17.40;99.90;;;;;;5073991;28;20115;-77
2023/09/28 02:03:53;;;;;;;22.98;14.20;;;17.40;99.90;;;;;;5080805;27;20361;-77
2023/09/28 02:06:39;;;;;;;26.17;16.52;;;17.40;99.90;;;;;;5084954;28;20079;-77
2023/09/28 02:09:25;;;;;;;23.10;13.68;;;17.40;99.90;;;;;;5063457;28;20122;-77
2023/09/28 02:12:12;;;;;;;18.60;13.57;;;17.40;99.90;;;;;;5087448;27;20545;-77
2023/09/28 02:15:03;;;;;;;19.55;13.90;;;17.40;99.90;;;;;;5097548;28;20468;-78
2023/09/28 02:17:50;;;;;;;19.63;12.68;;;17.40;99.90;;;;;;5084672;27;20035;-76
2023/09/28 02:20:36;;;;;;;18.83;13.93;;;17.40;99.90;;;;;;5091983;28;20048;-76
2023/09/28 02:23:22;;;;;;;23.55;13.88;;;17.40;99.90;;;;;;5081491;28;20095;-76
2023/09/28 02:26:08;;;;;;;18.45;13.40;;;17.40;99.90;;;;;;5075216;28;20067;-76
2023/09/28 02:28:54;;;;;;;21.15;13.60;;;17.40;99.90;;;;;;5097201;28;20036;-76
2023/09/28 02:31:41;;;;;;;23.17;13.98;;;17.40;99.90;;;;;;5095877;28;20836;-77
2023/09/28 02:34:28;;;;;;;20.48;14.35;;;17.30;99.90;;;;;;5076527;28;20345;-76
2023/09/28 02:37:14;;;;;;;28.77;14.88;;;17.30;99.90;;;;;;5081649;28;20044;-76
2023/09/28 02:40:04;;;;;;;19.42;14.50;;;17.20;99.90;;;;;;5075431;28;20480;-76
2023/09/28 02:42:50;;;;;;;25.88;14.05;;;17.10;99.90;;;;;;5070601;28;20082;-76
2023/09/28 02:45:36;;;;;;;23.73;15.00;;;17.20;99.90;;;;;;5077649;28;20058;-76
2023/09/28 02:48:22;;;;;;;21.75;15.02;;;17.20;99.90;;;;;;5096207;28;20053;-76
2023/09/28 02:51:10;;;;;;;25.33;13.30;;;17.20;99.90;;;;;;5084949;28;20062;-76
2023/09/28 02:53:56;;;;;;;23.38;14.10;;;17.20;99.90;;;;;;5065207;28;20066;-77
2023/09/28 02:56:42;;;;;;;19.02;12.88;;;17.20;99.90;;;;;;5107853;28;20104;-76
2023/09/28 02:59:28;;;;;;;19.95;12.95;;;17.20;99.90;;;;;;5060808;28;20055;-76
2023/09/28 03:02:14;;;;;;;19.45;13.95;;;17.10;99.90;;;;;;5075877;28;20040;-76
2023/09/28 03:05:00;;;;;;;20.40;13.32;;;17.10;99.90;;;;;;5083772;28;20047;-76
2023/09/28 03:07:46;;;;;;;21.05;14.45;;;17.10;99.90;;;;;;5096259;28;20051;-76
2023/09/28 03:10:32;;;;;;;16.65;13.25;;;17.10;99.90;;;;;;5092563;28;20108;-76
2023/09/28 03:13:18;;;;;;;21.45;13.45;;;17.00;99.90;;;;;;5068481;28;20040;-75
2023/09/28 03:16:05;;;;;;;21.75;14.40;;;17.10;99.90;;;;;;5093083;28;20253;-76
2023/09/28 03:18:52;;;;;;;19.88;13.70;;;17.00;99.90;;;;;;5079075;28;20045;-76
2023/09/28 03:21:39;;;;;;;22.35;14.68;;;17.00;99.90;;;;;;5095327;28;20345;-76
2023/09/28 03:24:25;;;;;;;22.90;14.13;;;17.00;99.90;;;;;;5064888;28;20112;-76
2023/09/28 03:27:11;;;;;;;21.02;13.50;;;17.00;99.90;;;;;;5046732;28;20056;-76
2023/09/28 03:29:57;;;;;;;17.52;12.48;;;17.00;99.90;;;;;;5074729;28;20036;-76
2023/09/28 03:32:43;;;;;;;18.73;13.05;;;17.00;99.90;;;;;;5076502;28;20128;-76
2023/09/28 03:35:30;;;;;;;20.08;12.02;;;17.00;99.90;;;;;;5045154;28;20044;-76
2023/09/28 03:38:16;;;;;;;17.77;11.98;;;16.90;99.90;;;;;;5081163;28;20036;-77
2023/09/28 03:41:04;;;;;;;21.00;13.45;;;16.80;99.90;;;;;;5071221;28;20154;-76
2023/09/28 03:43:50;;;;;;;24.25;14.40;;;16.80;99.90;;;;;;5054952;28;20137;-76
2023/09/28 03:46:36;;;;;;;22.35;14.82;;;16.80;99.90;;;;;;5062031;28;20075;-76
2023/09/28 03:49:23;;;;;;;24.52;14.98;;;16.80;99.90;;;;;;5057561;28;20485;-76
2023/09/28 03:52:09;;;;;;;18.77;14.80;;;16.70;99.90;;;;;;5081168;28;20032;-76
2023/09/28 03:54:56;;;;;;;19.55;14.05;;;16.70;99.90;;;;;;5079799;28;20561;-76
2023/09/28 03:57:44;;;;;;;18.70;15.50;;;16.70;99.90;;;;;;5062049;28;20043;-76
2023/09/28 04:00:30;;;;;;;28.17;17.60;;;16.70;99.90;;;;;;5058152;28;20051;-76
2023/09/28 04:03:16;;;;;;;25.77;16.92;;;16.70;99.90;;;;;;5065753;28;20088;-76
2023/09/28 04:06:02;;;;;;;24.52;17.70;;;16.70;99.90;;;;;;5065968;28;20051;-76
2023/09/28 04:08:48;;;;;;;23.75;17.95;;;16.60;99.90;;;;;;5078577;28;20109;-76
2023/09/28 04:11:34;;;;;;;29.15;19.08;;;16.60;99.90;;;;;;5061667;28;20097;-76
2023/09/28 04:14:21;;;;;;;27.90;18.25;;;16.50;99.90;;;;;;5069231;28;20048;-75
2023/09/28 04:17:08;;;;;;;32.15;18.58;;;16.60;99.90;;;;;;5052374;28;20071;-75
2023/09/28 04:19:54;;;;;;;29.90;18.63;;;16.50;99.90;;;;;;5062643;28;20127;-76
2023/09/28 04:22:40;;;;;;;31.65;18.83;;;16.60;99.90;;;;;;5073537;28;20126;-76
2023/09/28 04:25:27;;;;;;;27.95;18.17;;;16.60;99.90;;;;;;5063326;28;20091;-77
2023/09/28 04:28:13;;;;;;;23.17;19.33;;;16.60;99.90;;;;;;5058819;28;20105;-76
2023/09/28 04:30:59;;;;;;;25.45;17.33;;;16.60;99.90;;;;;;5064433;28;20270;-76
2023/09/28 04:33:45;;;;;;;25.95;17.65;;;16.60;99.90;;;;;;5077377;28;20028;-77
2023/09/28 04:36:32;;;;;;;23.27;17.17;;;16.60;99.90;;;;;;5092820;28;20468;-76
2023/09/28 04:39:18;;;;;;;28.17;17.80;;;16.60;99.90;;;;;;5066823;28;20048;-76
2023/09/28 04:42:04;;;;;;;25.00;17.88;;;16.60;99.90;;;;;;5078408;28;20044;-76
2023/09/28 04:44:50;;;;;;;25.25;18.80;;;16.60;99.90;;;;;;5059074;28;20109;-75
2023/09/28 04:47:36;;;;;;;25.80;17.75;;;16.60;99.90;;;;;;5078456;28;20047;-76
2023/09/28 04:50:22;;;;;;;28.85;19.08;;;16.50;99.90;;;;;;5059248;28;20083;-76
2023/09/28 04:53:08;;;;;;;24.95;18.05;;;16.50;99.90;;;;;;5079379;28;20483;-76
2023/09/28 04:55:54;;;;;;;27.80;18.77;;;16.50;99.90;;;;;;5073600;28;20043;-76
2023/09/28 04:58:40;;;;;;;28.38;18.33;;;16.50;99.90;;;;;;5047272;28;20476;-76
2023/09/28 05:01:27;;;;;;;27.67;19.50;;;16.50;99.90;;;;;;5076587;28;20093;-76
2023/09/28 05:04:13;;;;;;;27.10;18.30;;;16.50;99.90;;;;;;5062383;28;20544;-75
2023/09/28 05:06:59;;;;;;;26.33;18.15;;;16.50;99.90;;;;;;5065851;28;20046;-76
2023/09/28 05:09:45;;;;;;;24.27;17.00;;;16.50;99.90;;;;;;5077512;28;20051;-76
2023/09/28 05:12:33;;;;;;;27.67;17.83;;;16.50;99.90;;;;;;5063788;28;20064;-76
2023/09/28 05:15:20;;;;;;;25.85;18.77;;;16.50;99.90;;;;;;5069876;28;20071;-75
2023/09/28 05:18:06;;;;;;;25.33;17.65;;;16.50;99.90;;;;;;5078327;28;20486;-76
2023/09/28 05:20:52;;;;;;;25.23;17.13;;;16.50;99.90;;;;;;5081467;28;20470;-75
2023/09/28 05:23:38;;;;;;;27.13;16.30;;;16.50;99.90;;;;;;5064126;28;20384;-76
2023/09/28 05:26:24;;;;;;;24.60;16.17;;;16.50;99.90;;;;;;5090322;27;20051;-75
2023/09/28 05:29:10;;;;;;;25.88;17.60;;;16.40;99.90;;;;;;5061577;28;20046;-76
2023/09/28 05:31:56;;;;;;;24.55;15.98;;;16.40;99.90;;;;;;5094049;28;20177;-77
2023/09/28 05:34:42;;;;;;;21.60;16.40;;;16.40;99.90;;;;;;5103572;28;20081;-77
2023/09/28 05:37:29;;;;;;;22.73;16.58;;;16.40;99.90;;;;;;5100249;28;20828;-77
2023/09/28 05:40:16;;;;;;;26.17;17.02;;;16.50;99.90;;;;;;5098628;27;20044;-77
2023/09/28 05:43:02;;;;;;;24.02;16.95;;;16.50;99.90;;;;;;5084039;28;20040;-77
2023/09/28 05:45:48;;;;;;;22.38;17.05;;;16.50;99.90;;;;;;5084677;28;20048;-77
2023/09/28 05:48:34;;;;;;;23.42;16.45;;;16.50;99.90;;;;;;5069160;28;20035;-77
2023/09/28 05:51:20;;;;;;;20.67;15.88;;;16.50;99.90;;;;;;5087450;28;20031;-77
2023/09/28 05:54:06;;;;;;;25.88;17.00;;;16.50;99.90;;;;;;5084457;28;20036;-77
2023/09/28 05:56:52;;;;;;;23.48;16.52;;;16.50;99.90;;;;;;5091152;28;20040;-77
2023/09/28 05:59:38;;;;;;;27.83;17.80;;;16.50;99.90;;;;;;5092652;28;20135;-77
2023/09/28 06:02:24;;;;;;;23.67;17.70;;;16.50;99.90;;;;;;5103138;27;20035;-76
2023/09/28 06:05:10;;;;;;;25.45;17.65;;;16.50;99.90;;;;;;5064856;28;20068;-77
2023/09/28 06:07:56;;;;;;;25.92;17.63;;;16.50;99.90;;;;;;5081422;27;20134;-76
2023/09/28 06:10:44;;;;;;;24.55;17.98;;;16.50;99.90;;;;;;5109710;28;20042;-78
2023/09/28 06:13:30;;;;;;;25.48;17.40;;;16.50;99.90;;;;;;5072606;28;20632;-77
2023/09/28 06:16:16;;;;;;;29.90;20.05;;;16.50;99.90;;;;;;5057528;28;20124;-76
2023/09/28 06:19:02;;;;;;;28.02;17.98;;;16.50;99.90;;;;;;5085842;28;20035;-76
2023/09/28 06:21:48;;;;;;;26.98;17.67;;;16.60;99.90;;;;;;5070333;28;20040;-76
2023/09/28 06:24:34;;;;;;;26.48;17.92;;;16.60;99.90;;;;;;5110645;28;20032;-76
2023/09/28 06:27:20;;;;;;;26.10;18.08;;;16.60;99.90;;;;;;5080237;28;20040;-75
2023/09/28 06:30:07;;;;;;;26.65;18.67;;;16.70;99.90;;;;;;5093624;27;20480;-76
2023/09/28 06:32:53;;;;;;;25.35;18.08;;;16.70;99.90;;;;;;5072632;28;20036;-76
2023/09/28 06:35:39;;;;;;;25.67;16.40;;;16.70;99.90;;;;;;5084519;28;20035;-76
2023/09/28 06:38:25;;;;;;;22.65;17.05;;;16.70;99.90;;;;;;5069311;28;20409;-76
2023/09/28 06:41:11;;;;;;;21.17;16.25;;;16.80;99.90;;;;;;5125975;28;20054;-76
2023/09/28 06:43:57;;;;;;;25.35;17.65;;;16.80;99.90;;;;;;5087850;28;20035;-76
2023/09/28 06:46:44;;;;;;;22.25;16.95;;;16.80;99.90;;;;;;5109032;28;20051;-77
2023/09/28 06:49:32;;;;;;;28.60;17.10;;;16.80;99.90;;;;;;5084033;28;20032;-77
2023/09/28 06:52:18;;;;;;;26.77;18.30;;;16.90;99.90;;;;;;5100921;28;20050;-76
2023/09/28 06:55:08;;;;;;;25.00;17.17;;;16.90;99.90;;;;;;5070416;28;20031;-76
2023/09/28 06:57:54;;;;;;;26.83;17.17;;;16.90;99.90;;;;;;5079200;28;20043;-76
2023/09/28 07:00:44;;;;;;;30.30;16.40;;;17.00;99.90;;;;;;5083877;28;20055;-74
2023/09/28 07:03:31;;;;;;;25.75;17.98;;;17.00;99.90;;;;;;5090198;28;20063;-78
2023/09/28 07:06:17;;;;;;;21.40;16.55;;;17.10;99.90;;;;;;5080656;28;20048;-77
2023/09/28 07:09:05;;;;;;;23.50;16.35;;;17.10;99.90;;;;;;5088567;28;20528;-77
2023/09/28 07:11:51;;;;;;;29.33;16.55;;;17.20;99.90;;;;;;5095391;28;20398;-77
2023/09/28 07:14:37;;;;;;;23.38;15.98;;;17.20;99.90;;;;;;5082632;28;20043;-77
2023/09/28 07:17:24;;;;;;;21.05;13.85;;;17.20;99.90;;;;;;5072178;28;20075;-78
2023/09/28 07:20:14;;;;;;;22.40;15.20;;;17.30;99.90;;;;;;5097322;28;20062;-77
2023/09/28 07:22:59;;;;;;;26.92;15.05;;;17.30;99.90;;;;;;5096131;28;20035;-77
2023/09/28 07:25:45;;;;;;;21.20;13.68;;;17.40;99.90;;;;;;5080710;27;20051;-77
2023/09/28 07:28:31;;;;;;;18.42;13.73;;;17.50;99.90;;;;;;5073314;27;20036;-76
2023/09/28 07:31:19;;;;;;;19.83;14.05;;;17.50;99.90;;;;;;5071788;28;20104;-77
2023/09/28 07:34:05;;;;;;;21.92;12.98;;;17.50;99.90;;;;;;5066581;28;20040;-78
2023/09/28 07:36:52;;;;;;;17.80;13.32;;;17.50;99.90;;;;;;5086233;28;20039;-76
2023/09/28 07:39:38;;;;;;;15.38;12.25;;;17.60;99.90;;;;;;5084182;27;20134;-75
2023/09/28 07:42:24;;;;;;;19.00;11.88;;;17.70;99.90;;;;;;5105260;27;20042;-76
2023/09/28 07:45:12;;;;;;;18.10;11.30;;;17.70;99.90;;;;;;5070792;28;20054;-76
2023/09/28 07:47:58;;;;;;;16.52;10.88;;;17.80;99.90;;;;;;5059541;28;20375;-76
2023/09/28 07:50:44;;;;;;;18.38;10.38;;;17.70;99.90;;;;;;5091314;28;20071;-76
2023/09/28 07:53:30;;;;;;;20.42;10.82;;;17.80;99.90;;;;;;5067763;28;20035;-77
2023/09/28 07:56:18;;;;;;;17.30;10.50;;;17.90;99.90;;;;;;5086843;28;20051;-76
2023/09/28 07:59:04;;;;;;;15.45;9.23;;;17.90;99.90;;;;;;5103075;28;20032;-77
2023/09/28 08:01:50;;;;;;;17.98;8.95;;;18.00;99.90;;;;;;5096707;27;20518;-78
2023/09/28 08:04:36;;;;;;;14.68;9.20;;;18.00;99.90;;;;;;5083248;28;20044;-77
2023/09/28 08:07:24;;;;;;;14.70;8.93;;;18.10;99.90;;;;;;5084832;27;20043;-76
2023/09/28 08:10:10;;;;;;;16.13;8.23;;;18.20;99.90;;;;;;5100523;28;20118;-77
2023/09/28 08:12:56;;;;;;;13.23;8.63;;;18.20;99.90;;;;;;5098296;27;20039;-77
2023/09/28 08:15:44;;;;;;;11.20;8.93;;;18.20;99.90;;;;;;5090479;28;20100;-77
2023/09/28 08:18:30;;;;;;;11.73;8.35;;;18.30;99.90;;;;;;5073247;28;20092;-77
2023/09/28 08:21:16;;;;;;;16.17;8.60;;;18.30;99.90;;;;;;5071413;28;20040;-77
2023/09/28 08:24:03;;;;;;;12.15;8.60;;;18.40;99.90;;;;;;5088510;28;20050;-77
2023/09/28 08:26:50;;;;;;;16.50;9.00;;;18.40;99.90;;;;;;5090986;27;20054;-77
2023/09/28 08:29:37;;;;;;;12.70;7.88;;;18.40;99.90;;;;;;5075455;28;20036;-78
2023/09/28 08:32:23;;;;;;;14.68;7.50;;;18.50;99.90;;;;;;5081589;28;20035;-77
2023/09/28 08:35:11;;;;;;;11.48;7.50;;;18.50;99.90;;;;;;5068323;28;20043;-77
2023/09/28 08:37:57;;;;;;;13.05;7.32;;;18.60;99.90;;;;;;5082416;28;20071;-77
2023/09/28 08:40:43;;;;;;;11.18;7.18;;;18.60;99.90;;;;;;5081785;28;20102;-77
2023/09/28 08:43:31;;;;;;;11.20;6.28;;;18.70;99.90;;;;;;5087241;27;20039;-77
2023/09/28 08:46:17;;;;;;;11.23;6.78;;;18.70;99.90;;;;;;5086696;28;20458;-76
2023/09/28 08:49:05;;;;;;;12.70;6.50;;;18.80;99.90;;;;;;5083812;27;20100;-78
2023/09/28 08:51:51;;;;;;;11.20;6.70;;;18.80;99.90;;;;;;5092619;28;20036;-78
2023/09/28 08:54:41;;;;;;;13.85;6.90;;;19.00;99.90;;;;;;5057104;28;20032;-77
2023/09/28 08:57:27;;;;;;;9.50;5.85;;;19.10;99.90;;;;;;5076099;28;20126;-77
2023/09/28 09:00:14;;;;;;;11.52;5.82;;;19.20;99.90;;;;;;5068272;28;20044;-77
2023/09/28 09:03:00;;;;;;;12.20;5.75;;;19.30;99.90;;;;;;5102707;27;20059;-76
2023/09/28 09:05:46;;;;;;;11.55;6.03;;;19.40;99.90;;;;;;5085626;28;20114;-77
2023/09/28 09:08:34;;;;;;;8.98;6.05;;;19.60;99.90;;;;;;5078431;28;20035;-77
2023/09/28 09:11:20;;;;;;;11.38;6.30;;;19.70;99.90;;;;;;5078285;28;20744;-76
2023/09/28 09:14:06;;;;;;;12.75;5.47;;;19.80;99.90;;;;;;5067675;28;20046;-77
2023/09/28 09:16:52;;;;;;;6.85;4.47;;;20.00;99.90;;;;;;5068543;27;20039;-77
2023/09/28 09:19:38;;;;;;;6.20;4.38;;;20.20;99.90;;;;;;5090017;28;20345;-75
2023/09/28 09:22:28;;;;;;;7.80;4.97;;;20.30;99.90;;;;;;5075011;28;20088;-75
2023/09/28 09:25:15;;;;;;;6.45;4.32;;;20.50;99.90;;;;;;5085676;27;20135;-76
2023/09/28 09:28:01;;;;;;;5.40;4.18;;;20.60;99.90;;;;;;5066448;28;20100;-76
2023/09/28 09:30:47;;;;;;;10.63;4.43;;;20.70;99.90;;;;;;5079415;28;20036;-76
2023/09/28 09:33:33;;;;;;;6.80;4.00;;;20.70;99.90;;;;;;5078156;28;20536;-76
2023/09/28 09:36:22;;;;;;;5.85;3.35;;;20.90;99.90;;;;;;5102825;27;20105;-76
2023/09/28 09:39:19;;;;;;;7.00;4.13;;;21.00;99.90;;;;;;5084806;28;20549;-75
2023/09/28 09:42:05;;;;;;;6.47;3.85;;;21.20;99.90;;;;;;5087686;27;20036;-76
2023/09/28 09:44:52;;;;;;;6.53;3.58;;;21.20;99.90;;;;;;5057691;28;20429;-75
2023/09/28 09:47:48;;;;;;;7.78;3.80;;;21.40;99.90;;;;;;5071684;28;20123;-76
2023/09/28 09:50:35;;;;;;;7.15;4.10;;;21.60;99.90;;;;;;5067682;28;20032;-76
2023/09/28 09:53:21;;;;;;;6.22;3.72;;;21.60;99.90;;;;;;5077062;28;20039;-75
2023/09/28 09:56:07;;;;;;;6.18;3.67;;;21.80;99.90;;;;;;5102280;27;20107;-76
2023/09/28 09:58:53;;;;;;;6.40;3.80;;;22.00;99.90;;;;;;5064195;28;20119;-76
2023/09/28 10:01:40;;;;;;;7.10;3.35;;;22.00;99.90;;;;;;5082495;27;20047;-75
2023/09/28 10:04:26;;;;;;;6.43;3.80;;;22.00;99.90;;;;;;5083613;28;20050;-75
2023/09/28 10:07:12;;;;;;;5.60;3.60;;;22.20;99.90;;;;;;5084257;28;20031;-77
2023/09/28 10:09:59;;;;;;;7.32;3.42;;;22.20;99.90;;;;;;5074685;28;20051;-76
2023/09/28 10:12:47;;;;;;;7.63;3.83;;;22.40;99.90;;;;;;5085567;28;20046;-76
2023/09/28 10:15:33;;;;;;;7.30;3.65;;;22.60;99.90;;;;;;5071533;28;20140;-75
2023/09/28 10:18:19;;;;;;;6.95;4.03;;;22.60;99.90;;;;;;5076081;28;20524;-75
2023/09/28 10:21:06;;;;;;;6.40;3.55;;;22.60;99.90;;;;;;5092752;27;20464;-75
2023/09/28 10:23:57;;;;;;;10.30;3.83;;;22.70;99.90;;;;;;5064074;28;20097;-76
2023/09/28 10:26:48;;;;;;;7.32;3.70;;;22.80;99.90;;;;;;5082541;28;20051;-75
2023/09/28 10:29:34;;;;;;;6.43;3.70;;;23.00;99.90;;;;;;5093213;28;20055;-77
2023/09/28 10:32:30;;;;;;;7.97;3.50;;;23.20;99.90;;;;;;5084019;27;20081;-76
2023/09/28 10:35:19;;;;;;;5.65;3.55;;;23.30;99.90;;;;;;5083892;28;20036;-77
2023/09/28 10:38:18;;;;;;;7.13;3.47;;;23.30;99.90;;;;;;5101950;28;20047;-76
2023/09/28 10:41:05;;;;;;;8.18;3.65;;;23.60;99.90;;;;;;5097282;28;20040;-76
2023/09/28 10:43:51;;;;;;;8.57;3.75;;;23.80;99.90;;;;;;5076639;28;20113;-75
2023/09/28 10:46:39;;;;;;;8.60;3.40;;;24.00;99.90;;;;;;5093001;28;20116;-76
2023/09/28 10:49:27;;;;;;;6.72;3.25;;;24.30;99.70;;;;;;5110885;28;20035;-76
2023/09/28 10:52:13;;;;;;;7.38;3.58;;;24.40;99.40;;;;;;5066040;28;20052;-77
2023/09/28 10:54:59;;;;;;;7.90;3.50;;;24.60;99.30;;;;;;5072474;28;20044;-78
2023/09/28 10:57:45;;;;;;;5.57;3.35;;;24.60;99.00;;;;;;5099330;28;20039;-78
2023/09/28 11:00:32;;;;;;;7.10;3.35;;;24.80;98.70;;;;;;5071779;28;20120;-78
2023/09/28 11:03:19;;;;;;;5.15;3.20;;;24.80;98.70;;;;;;5078357;28;20113;-77
2023/09/28 11:06:07;;;;;;;9.02;4.00;;;24.80;98.30;;;;;;5074815;28;20040;-78
2023/09/28 11:08:55;;;;;;;7.63;3.60;;;24.80;98.50;;;;;;5103790;27;20095;-78
2023/09/28 11:11:41;;;;;;;6.45;3.53;;;24.90;98.60;;;;;;5080986;28;20071;-78
2023/09/28 11:14:27;;;;;;;8.60;3.70;;;25.10;98.10;;;;;;5085820;27;20055;-77
2023/09/28 11:17:14;;;;;;;7.28;3.45;;;25.00;98.00;;;;;;5093834;27;20032;-77
2023/09/28 11:20:00;;;;;;;9.75;3.70;;;25.00;98.10;;;;;;5109400;27;20047;-77
2023/09/28 11:22:51;;;;;;;11.60;3.95;;;25.10;98.10;;;;;;5084946;27;20039;-76
2023/09/28 11:25:42;;;;;;;7.25;3.90;;;25.10;98.10;;;;;;5086417;28;20476;-76
2023/09/28 11:28:29;;;;;;;9.13;3.95;;;25.20;98.70;;;;;;5076164;27;20050;-76
2023/09/28 11:31:15;;;;;;;6.97;3.70;;;25.10;97.90;;;;;;5081324;28;20067;-76
2023/09/28 11:34:05;;;;;;;10.25;3.58;;;25.20;97.90;;;;;;5104580;27;20035;-75
2023/09/28 11:36:52;;;;;;;10.40;3.08;;;25.10;97.80;;;;;;5107488;27;20414;-76
2023/09/28 11:39:39;;;;;;;6.35;3.45;;;25.30;97.60;;;;;;5086815;28;20118;-76
2023/09/28 11:42:25;;;;;;;7.80;3.75;;;25.30;97.20;;;;;;5071774;27;20101;-76
2023/09/28 11:45:14;;;;;;;7.75;3.85;;;25.30;97.30;;;;;;5063233;28;20043;-76
2023/09/28 11:48:09;;;;;;;5.43;3.63;;;25.40;97.30;;;;;;5083824;27;20429;-76
2023/09/28 11:50:56;;;;;;;6.93;3.42;;;25.60;97.20;;;;;;5075913;28;20044;-76
2023/09/28 11:53:42;;;;;;;6.90;3.58;;;25.70;97.10;;;;;;5078013;28;20050;-76
2023/09/28 11:56:28;;;;;;;7.30;3.45;;;25.70;96.70;;;;;;5075133;28;20051;-76
2023/09/28 11:59:15;;;;;;;8.50;3.55;;;25.70;96.70;;;;;;5080914;28;20140;-75
2023/09/28 12:02:01;;;;;;;6.40;3.47;;;25.70;96.50;;;;;;5086866;27;20043;-76
2023/09/28 12:04:47;;;;;;;7.53;3.20;;;26.00;96.70;;;;;;5086415;28;20273;-76
2023/09/28 12:07:33;;;;;;;7.63;3.33;;;26.20;96.30;;;;;;5082671;27;20047;-76
2023/09/28 12:10:19;;;;;;;5.60;3.40;;;26.20;96.00;;;;;;5091196;27;20086;-76
2023/09/28 12:13:05;;;;;;;8.45;3.90;;;26.30;96.10;;;;;;5062854;28;20043;-76
2023/09/28 12:15:52;;;;;;;6.15;3.35;;;26.30;95.40;;;;;;5085724;27;20039;-76
2023/09/28 12:18:37;;;;;;;7.18;3.45;;;26.20;95.10;;;;;;5065611;28;20051;-76
2023/09/28 12:21:24;;;;;;;7.22;3.53;;;26.40;95.30;;;;;;5091288;27;20042;-75
2023/09/28 12:24:10;;;;;;;8.07;3.63;;;26.60;95.70;;;;;;5101533;27;20379;-76
2023/09/28 12:26:56;;;;;;;7.28;3.80;;;26.70;94.80;;;;;;5085083;28;20039;-76
2023/09/28 12:29:42;;;;;;;7.18;3.60;;;26.90;95.40;;;;;;5081507;27;20043;-76
2023/09/28 12:32:28;;;;;;;6.70;3.58;;;27.10;95.20;;;;;;5080616;28;20078;-77
2023/09/28 12:35:15;;;;;;;6.68;3.10;;;27.10;94.30;;;;;;5063506;28;20495;-77
2023/09/28 12:38:04;;;;;;;7.97;3.40;;;27.20;94.30;;;;;;5080673;28;20457;-76
2023/09/28 12:40:50;;;;;;;7.47;3.58;;;27.40;94.70;;;;;;5096268;28;20479;-78
2023/09/28 12:43:36;;;;;;;6.10;2.88;;;27.70;94.40;;;;;;5091556;27;20494;-77
2023/09/28 12:46:22;;;;;;;5.25;3.30;;;28.20;93.50;;;;;;5102300;28;20149;-78
2023/09/28 12:49:08;;;;;;;6.20;3.50;;;28.30;92.60;;;;;;5075250;28;20036;-78
2023/09/28 12:51:54;;;;;;;4.38;3.22;;;28.10;92.40;;;;;;5076452;28;20043;-78
2023/09/28 12:54:41;;;;;;;6.57;2.75;;;28.50;92.70;;;;;;5098587;28;20032;-77
2023/09/28 12:57:27;;;;;;;7.28;3.47;;;28.40;92.10;;;;;;5086606;27;20112;-78
2023/09/28 13:00:14;;;;;;;5.03;3.00;;;28.30;91.60;;;;;;5080497;28;20043;-76
2023/09/28 13:03:02;;;;;;;6.78;3.20;;;28.30;91.70;;;;;;5099172;27;20045;-78
2023/09/28 13:05:48;;;;;;;7.43;3.65;;;28.40;91.80;;;;;;5079021;28;20079;-78
2023/09/28 13:08:35;;;;;;;6.97;3.40;;;29.00;92.10;;;;;;5087080;27;20075;-79
2023/09/28 13:11:21;;;;;;;9.13;3.50;;;29.30;91.30;;;;;;5082703;28;20082;-77
2023/09/28 13:14:07;;;;;;;6.93;3.20;;;29.20;91.00;;;;;;5067187;28;20471;-77
2023/09/28 13:16:55;;;;;;;7.15;3.20;;;29.20;90.90;;;;;;5068096;27;20122;-76
2023/09/28 13:19:44;;;;;;;5.85;3.28;;;29.40;91.50;;;;;;5066359;28;20075;-77
2023/09/28 13:22:30;;;;;;;6.97;3.20;;;29.90;91.30;;;;;;5094040;27;20051;-77
2023/09/28 13:25:16;;;;;;;5.72;3.40;;;30.40;90.40;;;;;;5079118;28;20043;-76
2023/09/28 13:28:02;;;;;;;9.15;3.30;;;29.20;89.90;;;;;;5088301;28;20043;-76
2023/09/28 13:30:48;;;;;;;6.40;3.33;;;29.00;90.20;;;;;;5089561;27;20128;-76
2023/09/28 13:33:38;;;;;;;5.20;3.20;;;29.30;90.80;;;;;;5093133;28;20040;-77
2023/09/28 13:36:25;;;;;;;7.60;3.00;;;29.60;89.30;;;;;;5095171;27;20031;-77
2023/09/28 13:39:27;;;;;;;6.53;3.42;;;29.70;88.40;;;;;;5065077;28;20043;-77
2023/09/28 13:42:13;;;;;;;6.40;2.83;;;29.10;89.80;;;;;;5086365;27;20038;-76
2023/09/28 13:44:59;;;;;;;4.90;2.85;;;29.20;89.80;;;;;;5084640;28;20043;-77
2023/09/28 13:47:47;;;;;;;5.25;3.40;;;29.00;90.40;;;;;;5075898;28;20480;-77
2023/09/28 13:50:33;;;;;;;;;;;28.80;90.60;;;;;;5089997;28;20043;-77
2023/09/28 13:53:19;;;;;;;8.43;4.10;;;28.40;91.10;;;;;;5081364;28;20014;-76
2023/09/28 13:56:06;;;;;;;10.38;3.45;;;28.40;91.10;;;;;;5079102;27;20039;-76
2023/09/28 13:58:52;;;;;;;8.45;3.42;;;28.10;90.90;;;;;;5097959;28;20138;-76
2023/09/28 14:01:43;;;;;;;5.82;2.88;;;28.00;91.40;;;;;;5110265;27;20039;-76
2023/09/28 14:04:31;;;;;;;6.03;3.30;;;27.80;91.40;;;;;;5092179;27;20333;-77
2023/09/28 14:07:17;;;;;;;6.22;3.42;;;27.40;91.60;;;;;;5071879;28;20048;-76
2023/09/28 14:10:03;;;;;;;5.43;2.90;;;27.10;92.00;;;;;;5097986;27;20035;-76
2023/09/28 14:12:49;;;;;;;6.40;3.20;;;27.00;92.40;;;;;;5095848;28;20469;-76
2023/09/28 14:15:36;;;;;;;6.55;3.75;;;27.10;92.30;;;;;;5080441;27;20126;-77